sensor_id;sensor_type;location;lat;lon;timestamp;temperature;humidity
15231;DHT22;32569;51.762;8.564;2023-05-25T00:00:20;9.30;99.90
15231;DHT22;32569;51.762;8.564;2023-05-25T00:02:50;9.10;99.90
15231;DHT22;32569;51.762;8.564;2023-05-25T00:05:20;9.00;99.90
15231;DHT22;32569;51.762;8.564;2023-05-25T00:07:51;9.20;99.90
15231;DHT22;32569;51.762;8.564;2023-05-25T00:10:20;9.30;99.90
15231;DHT22;32569;51.762;8.564;2023-05-25T00:12:47;9.30;99.90
15231;DHT22;32569;51.762;8.564;2023-05-25T00:15:13;9.20;99.90
15231;DHT22;32569;51.762;8.564;2023-05-25T00:17:40;9.30;99.90
15231;DHT22;32569;51.762;8.564;2023-05-25T00:20:07;9.30;99.90
15231;DHT22;32569;51.762;8.564;2023-05-25T00:22:36;9.40;99.90
15231;DHT22;32569;51.762;8.564;2023-05-25T00:25:03;9.30;99.90
15231;DHT22;32569;51.762;8.564;2023-05-25T00:27:30;9.40;99.90
15231;DHT22;32569;51.762;8.564;2023-05-25T00:29:57;9.40;99.90
15231;DHT22;32569;51.762;8.564;2023-05-25T00:32:24;9.30;99.90
15231;DHT22;32569;51.762;8.564;2023-05-25T00:34:50;9.30;99.90
15231;DHT22;32569;51.762;8.564;2023-05-25T00:37:17;9.30;99.90
15231;DHT22;32569;51.762;8.564;2023-05-25T00:39:48;9.40;99.90
15231;DHT22;32569;51.762;8.564;2023-05-25T00:42:17;9.40;99.90
15231;DHT22;32569;51.762;8.564;2023-05-25T00:44:44;9.40;99.90
15231;DHT22;32569;51.762;8.564;2023-05-25T00:47:13;9.30;99.90
15231;DHT22;32569;51.762;8.564;2023-05-25T00:49:41;9.30;99.90
15231;DHT22;32569;51.762;8.564;2023-05-25T00:52:09;9.30;99.90
15231;DHT22;32569;51.762;8.564;2023-05-25T00:54:37;9.30;99.90
15231;DHT22;32569;51.762;8.564;2023-05-25T00:57:06;9.20;99.90
15231;DHT22;32569;51.762;8.564;2023-05-25T00:59:35;9.10;99.90
15231;DHT22;32569;51.762;8.564;2023-05-25T01:02:07;9.00;99.90
15231;DHT22;32569;51.762;8.564;2023-05-25T01:04:35;9.00;99.90
15231;DHT22;32569;51.762;8.564;2023-05-25T01:07:04;9.00;99.90
15231;DHT22;32569;51.762;8.564;2023-05-25T01:09:33;9.20;99.90
15231;DHT22;32569;51.762;8.564;2023-05-25T01:12:01;9.20;99.90
15231;DHT22;32569;51.762;8.564;2023-05-25T01:14:30;9.10;99.90
15231;DHT22;32569;51.762;8.564;2023-05-25T01:16:58;9.00;99.90
15231;DHT22;32569;51.762;8.564;2023-05-25T01:19:31;9.00;99.90
15231;DHT22;32569;51.762;8.564;2023-05-25T01:22:05;9.00;99.90
15231;DHT22;32569;51.762;8.564;2023-05-25T01:24:36;8.90;99.90
15231;DHT22;32569;51.762;8.564;2023-05-25T01:27:09;9.00;99.90
15231;DHT22;32569;51.762;8.564;2023-05-25T01:29:40;9.10;99.90
15231;DHT22;32569;51.762;8.564;2023-05-25T01:32:07;9.10;99.90
15231;DHT22;32569;51.762;8.564;2023-05-25T01:34:35;9.00;99.90
15231;DHT22;32569;51.762;8.564;2023-05-25T01:37:03;9.10;99.90
15231;DHT22;32569;51.762;8.564;2023-05-25T01:39:30;9.10;99.90
15231;DHT22;32569;51.762;8.564;2023-05-25T01:41:57;9.00;99.90
15231;DHT22;32569;51.762;8.564;2023-05-25T01:44:27;8.90;99.90
15231;DHT22;32569;51.762;8.564;2023-05-25T01:46:59;8.80;99.90
15231;DHT22;32569;51.762;8.564;2023-05-25T01:49:36;8.70;99.90
15231;DHT22;32569;51.762;8.564;2023-05-25T01:52:14;8.70;99.90
15231;DHT22;32569;51.762;8.564;2023-05-25T01:54:46;8.60;99.90
15231;DHT22;32569;51.762;8.564;2023-05-25T01:57:14;8.60;99.90
15231;DHT22;32569;51.762;8.564;2023-05-25T01:59:43;8.50;99.90
15231;DHT22;32569;51.762;8.564;2023-05-25T02:02:11;8.60;99.90
15231;DHT22;32569;51.762;8.564;2023-05-25T02:04:39;8.70;99.90
15231;DHT22;32569;51.762;8.564;2023-05-25T02:07:08;8.70;99.90
15231;DHT22;32569;51.762;8.564;2023-05-25T02:09:35;8.70;99.90
15231;DHT22;32569;51.762;8.564;2023-05-25T02:12:02;8.60;99.90
15231;DHT22;32569;51.762;8.564;2023-05-25T02:14:29;8.60;99.90
15231;DHT22;32569;51.762;8.564;2023-05-25T02:16:55;8.60;99.90
15231;DHT22;32569;51.762;8.564;2023-05-25T02:19:26;8.50;99.90
15231;DHT22;32569;51.762;8.564;2023-05-25T02:21:52;8.40;99.90
15231;DHT22;32569;51.762;8.564;2023-05-25T02:24:21;8.20;99.90
15231;DHT22;32569;51.762;8.564;2023-05-25T02:26:49;8.10;99.90
15231;DHT22;32569;51.762;8.564;2023-05-25T02:29:16;8.10;99.90
15231;DHT22;32569;51.762;8.564;2023-05-25T02:31:43;8.00;99.90
15231;DHT22;32569;51.762;8.564;2023-05-25T02:34:09;7.90;99.90
15231;DHT22;32569;51.762;8.564;2023-05-25T02:36:38;7.90;99.90
15231;DHT22;32569;51.762;8.564;2023-05-25T02:39:08;7.90;99.90
15231;DHT22;32569;51.762;8.564;2023-05-25T02:41:36;7.80;99.90
15231;DHT22;32569;51.762;8.564;2023-05-25T02:44:03;7.70;99.90
15231;DHT22;32569;51.762;8.564;2023-05-25T02:46:30;7.80;99.90
15231;DHT22;32569;51.762;8.564;2023-05-25T02:48:58;7.70;99.90
15231;DHT22;32569;51.762;8.564;2023-05-25T02:51:24;7.60;99.90
15231;DHT22;32569;51.762;8.564;2023-05-25T02:53:54;7.70;99.90
15231;DHT22;32569;51.762;8.564;2023-05-25T02:56:21;7.80;99.90
15231;DHT22;32569;51.762;8.564;2023-05-25T02:58:49;7.70;99.90
15231;DHT22;32569;51.762;8.564;2023-05-25T03:01:16;7.60;99.90
15231;DHT22;32569;51.762;8.564;2023-05-25T03:03:43;7.70;99.90
15231;DHT22;32569;51.762;8.564;2023-05-25T03:06:10;7.70;99.90
15231;DHT22;32569;51.762;8.564;2023-05-25T03:08:38;7.70;99.90
15231;DHT22;32569;51.762;8.564;2023-05-25T03:11:05;7.70;99.90
15231;DHT22;32569;51.762;8.564;2023-05-25T03:13:31;7.90;99.90
15231;DHT22;32569;51.762;8.564;2023-05-25T03:15:59;7.90;99.90
15231;DHT22;32569;51.762;8.564;2023-05-25T03:18:26;7.80;99.90
15231;DHT22;32569;51.762;8.564;2023-05-25T03:20:53;7.70;99.90
15231;DHT22;32569;51.762;8.564;2023-05-25T03:23:20;7.80;99.90
15231;DHT22;32569;51.762;8.564;2023-05-25T03:25:46;7.60;99.90
15231;DHT22;32569;51.762;8.564;2023-05-25T03:28:13;7.50;99.90
15231;DHT22;32569;51.762;8.564;2023-05-25T03:30:40;7.50;99.90
15231;DHT22;32569;51.762;8.564;2023-05-25T03:33:08;7.50;99.90
15231;DHT22;32569;51.762;8.564;2023-05-25T03:35:34;7.60;99.90
15231;DHT22;32569;51.762;8.564;2023-05-25T03:38:01;7.70;99.90
15231;DHT22;32569;51.762;8.564;2023-05-25T03:40:27;7.90;99.90
15231;DHT22;32569;51.762;8.564;2023-05-25T03:42:54;7.80;99.90
15231;DHT22;32569;51.762;8.564;2023-05-25T03:45:21;7.60;99.90
15231;DHT22;32569;51.762;8.564;2023-05-25T03:47:50;7.60;99.90
15231;DHT22;32569;51.762;8.564;2023-05-25T03:50:18;7.60;99.90
15231;DHT22;32569;51.762;8.564;2023-05-25T03:52:45;7.60;99.90
15231;DHT22;32569;51.762;8.564;2023-05-25T03:55:12;7.70;99.90
15231;DHT22;32569;51.762;8.564;2023-05-25T03:57:40;7.70;99.90
15231;DHT22;32569;51.762;8.564;2023-05-25T04:00:07;7.60;99.90
15231;DHT22;32569;51.762;8.564;2023-05-25T04:02:34;7.60;99.90
15231;DHT22;32569;51.762;8.564;2023-05-25T04:05:01;7.60;99.90
15231;DHT22;32569;51.762;8.564;2023-05-25T04:07:29;7.70;99.90
15231;DHT22;32569;51.762;8.564;2023-05-25T04:09:56;7.60;99.90
15231;DHT22;32569;51.762;8.564;2023-05-25T04:12:23;7.70;99.90
15231;DHT22;32569;51.762;8.564;2023-05-25T04:14:50;7.90;99.90
15231;DHT22;32569;51.762;8.564;2023-05-25T04:17:17;8.00;99.90
15231;DHT22;32569;51.762;8.564;2023-05-25T04:19:46;7.90;99.90
15231;DHT22;32569;51.762;8.564;2023-05-25T04:22:13;7.90;99.90
15231;DHT22;32569;51.762;8.564;2023-05-25T04:24:41;8.00;99.90
15231;DHT22;32569;51.762;8.564;2023-05-25T04:27:07;8.10;99.90
15231;DHT22;32569;51.762;8.564;2023-05-25T04:29:34;8.20;99.90
15231;DHT22;32569;51.762;8.564;2023-05-25T04:32:01;8.30;99.90
15231;DHT22;32569;51.762;8.564;2023-05-25T04:34:28;8.40;99.90
15231;DHT22;32569;51.762;8.564;2023-05-25T04:36:55;8.50;99.90
15231;DHT22;32569;51.762;8.564;2023-05-25T04:39:22;8.50;99.90
15231;DHT22;32569;51.762;8.564;2023-05-25T04:41:49;8.70;99.90
15231;DHT22;32569;51.762;8.564;2023-05-25T04:44:17;8.80;99.90
15231;DHT22;32569;51.762;8.564;2023-05-25T04:46:47;8.90;99.90
15231;DHT22;32569;51.762;8.564;2023-05-25T04:49:17;9.00;99.90
15231;DHT22;32569;51.762;8.564;2023-05-25T04:51:44;9.00;99.90
15231;DHT22;32569;51.762;8.564;2023-05-25T04:54:10;9.00;99.90
15231;DHT22;32569;51.762;8.564;2023-05-25T04:56:37;8.80;99.90
15231;DHT22;32569;51.762;8.564;2023-05-25T04:59:05;8.80;99.90
15231;DHT22;32569;51.762;8.564;2023-05-25T05:01:31;9.00;99.90
15231;DHT22;32569;51.762;8.564;2023-05-25T05:03:58;9.10;99.90
15231;DHT22;32569;51.762;8.564;2023-05-25T05:06:25;9.30;99.90
15231;DHT22;32569;51.762;8.564;2023-05-25T05:08:51;9.40;99.90
15231;DHT22;32569;51.762;8.564;2023-05-25T05:11:18;9.50;99.90
15231;DHT22;32569;51.762;8.564;2023-05-25T05:13:45;9.60;99.90
15231;DHT22;32569;51.762;8.564;2023-05-25T05:16:15;9.60;99.90
15231;DHT22;32569;51.762;8.564;2023-05-25T05:18:42;9.90;99.90
15231;DHT22;32569;51.762;8.564;2023-05-25T05:21:08;10.00;99.90
15231;DHT22;32569;51.762;8.564;2023-05-25T05:23:35;10.10;99.90
15231;DHT22;32569;51.762;8.564;2023-05-25T05:26:01;10.10;99.90
15231;DHT22;32569;51.762;8.564;2023-05-25T05:28:29;10.40;99.90
15231;DHT22;32569;51.762;8.564;2023-05-25T05:31:08;10.50;99.90
15231;DHT22;32569;51.762;8.564;2023-05-25T05:33:40;10.70;99.90
15231;DHT22;32569;51.762;8.564;2023-05-25T05:36:10;10.50;99.90
15231;DHT22;32569;51.762;8.564;2023-05-25T05:38:38;10.40;99.90
15231;DHT22;32569;51.762;8.564;2023-05-25T05:41:05;10.40;99.90
15231;DHT22;32569;51.762;8.564;2023-05-25T05:43:37;10.40;99.90
15231;DHT22;32569;51.762;8.564;2023-05-25T05:46:06;10.40;99.90
15231;DHT22;32569;51.762;8.564;2023-05-25T05:48:33;10.40;99.90
15231;DHT22;32569;51.762;8.564;2023-05-25T05:51:01;10.40;99.90
15231;DHT22;32569;51.762;8.564;2023-05-25T05:53:31;10.30;99.90
15231;DHT22;32569;51.762;8.564;2023-05-25T05:56:05;10.30;99.90
15231;DHT22;32569;51.762;8.564;2023-05-25T05:58:35;10.30;99.90
15231;DHT22;32569;51.762;8.564;2023-05-25T06:01:04;10.30;99.90
15231;DHT22;32569;51.762;8.564;2023-05-25T09:38:51;12.50;99.90
15231;DHT22;32569;51.762;8.564;2023-05-25T09:41:18;12.70;99.90
15231;DHT22;32569;51.762;8.564;2023-05-25T09:43:48;12.70;99.90
15231;DHT22;32569;51.762;8.564;2023-05-25T09:46:19;12.90;99.90
15231;DHT22;32569;51.762;8.564;2023-05-25T09:48:48;12.90;99.90
15231;DHT22;32569;51.762;8.564;2023-05-25T09:51:20;12.80;99.90
15231;DHT22;32569;51.762;8.564;2023-05-25T09:53:58;12.70;99.90
15231;DHT22;32569;51.762;8.564;2023-05-25T09:56:29;12.50;99.90
15231;DHT22;32569;51.762;8.564;2023-05-25T09:58:56;12.60;99.90
15231;DHT22;32569;51.762;8.564;2023-05-25T10:01:23;12.60;99.90
15231;DHT22;32569;51.762;8.564;2023-05-25T10:03:50;12.90;99.90
15231;DHT22;32569;51.762;8.564;2023-05-25T10:06:21;13.00;99.90
15231;DHT22;32569;51.762;8.564;2023-05-25T10:08:48;12.80;99.90
15231;DHT22;32569;51.762;8.564;2023-05-25T10:11:16;12.90;99.90
15231;DHT22;32569;51.762;8.564;2023-05-25T10:13:45;13.10;99.90
15231;DHT22;32569;51.762;8.564;2023-05-25T10:16:14;13.20;99.90
15231;DHT22;32569;51.762;8.564;2023-05-25T10:18:46;13.10;99.90
15231;DHT22;32569;51.762;8.564;2023-05-25T10:21:15;13.10;99.90
15231;DHT22;32569;51.762;8.564;2023-05-25T10:23:44;13.30;99.90
15231;DHT22;32569;51.762;8.564;2023-05-25T10:26:17;13.20;99.90
15231;DHT22;32569;51.762;8.564;2023-05-25T10:28:47;13.20;99.90
15231;DHT22;32569;51.762;8.564;2023-05-25T10:31:15;13.20;99.90
15231;DHT22;32569;51.762;8.564;2023-05-25T10:33:43;13.10;99.90
15231;DHT22;32569;51.762;8.564;2023-05-25T10:36:10;13.20;99.90
15231;DHT22;32569;51.762;8.564;2023-05-25T10:38:41;13.50;99.90
15231;DHT22;32569;51.762;8.564;2023-05-25T10:41:09;13.70;99.90
15231;DHT22;32569;51.762;8.564;2023-05-25T10:43:38;13.80;99.90
15231;DHT22;32569;51.762;8.564;2023-05-25T10:46:05;13.90;99.90
15231;DHT22;32569;51.762;8.564;2023-05-25T10:48:36;14.20;99.70
15231;DHT22;32569;51.762;8.564;2023-05-25T10:51:03;14.10;99.80
15231;DHT22;32569;51.762;8.564;2023-05-25T10:53:30;14.00;99.60
15231;DHT22;32569;51.762;8.564;2023-05-25T10:56:03;14.00;99.70
15231;DHT22;32569;51.762;8.564;2023-05-25T10:58:31;14.00;99.50
15231;DHT22;32569;51.762;8.564;2023-05-25T11:01:01;14.00;99.80
15231;DHT22;32569;51.762;8.564;2023-05-25T11:03:46;13.90;99.90
15231;DHT22;32569;51.762;8.564;2023-05-25T11:06:14;14.10;99.70
15231;DHT22;32569;51.762;8.564;2023-05-25T11:08:48;14.20;99.50
15231;DHT22;32569;51.762;8.564;2023-05-25T11:11:15;14.20;99.60
15231;DHT22;32569;51.762;8.564;2023-05-25T11:13:43;14.30;99.90
15231;DHT22;32569;51.762;8.564;2023-05-25T11:16:19;14.30;99.80
15231;DHT22;32569;51.762;8.564;2023-05-25T11:18:53;14.40;99.80
15231;DHT22;32569;51.762;8.564;2023-05-25T11:21:40;14.50;99.90
15231;DHT22;32569;51.762;8.564;2023-05-25T11:24:12;14.40;99.60
15231;DHT22;32569;51.762;8.564;2023-05-25T11:26:51;14.40;99.90
15231;DHT22;32569;51.762;8.564;2023-05-25T11:29:19;14.20;99.90
15231;DHT22;32569;51.762;8.564;2023-05-25T11:31:54;14.00;99.90
15231;DHT22;32569;51.762;8.564;2023-05-25T11:34:24;13.90;99.90
15231;DHT22;32569;51.762;8.564;2023-05-25T11:36:54;14.30;99.90
15231;DHT22;32569;51.762;8.564;2023-05-25T11:39:22;14.60;99.90
15231;DHT22;32569;51.762;8.564;2023-05-25T11:41:53;14.60;99.60
15231;DHT22;32569;51.762;8.564;2023-05-25T11:44:25;14.70;99.60
15231;DHT22;32569;51.762;8.564;2023-05-25T11:47:00;14.90;99.10
15231;DHT22;32569;51.762;8.564;2023-05-25T11:49:31;14.90;99.60
15231;DHT22;32569;51.762;8.564;2023-05-25T11:51:58;15.20;99.00
15231;DHT22;32569;51.762;8.564;2023-05-25T11:54:29;15.30;98.80
15231;DHT22;32569;51.762;8.564;2023-05-25T11:56:56;15.40;98.50
15231;DHT22;32569;51.762;8.564;2023-05-25T11:59:27;15.50;98.40
15231;DHT22;32569;51.762;8.564;2023-05-25T12:01:57;15.60;98.70
15231;DHT22;32569;51.762;8.564;2023-05-25T12:04:23;15.20;98.20
15231;DHT22;32569;51.762;8.564;2023-05-25T12:07:03;15.10;98.60
15231;DHT22;32569;51.762;8.564;2023-05-25T12:09:30;15.10;98.70
15231;DHT22;32569;51.762;8.564;2023-05-25T12:11:57;15.00;98.30
15231;DHT22;32569;51.762;8.564;2023-05-25T12:14:24;15.10;98.70
15231;DHT22;32569;51.762;8.564;2023-05-25T12:16:53;15.30;98.30
15231;DHT22;32569;51.762;8.564;2023-05-25T12:19:22;15.40;98.20
15231;DHT22;32569;51.762;8.564;2023-05-25T12:21:49;15.60;98.30
15231;DHT22;32569;51.762;8.564;2023-05-25T12:24:18;15.70;97.60
15231;DHT22;32569;51.762;8.564;2023-05-25T12:26:46;15.60;97.60
15231;DHT22;32569;51.762;8.564;2023-05-25T12:29:15;15.60;97.40
15231;DHT22;32569;51.762;8.564;2023-05-25T12:31:42;15.50;97.40
15231;DHT22;32569;51.762;8.564;2023-05-25T12:34:16;15.20;97.60
15231;DHT22;32569;51.762;8.564;2023-05-25T12:36:46;15.00;97.60
15231;DHT22;32569;51.762;8.564;2023-05-25T12:39:31;15.00;98.20
15231;DHT22;32569;51.762;8.564;2023-05-25T12:42:02;15.00;98.10
15231;DHT22;32569;51.762;8.564;2023-05-25T12:44:31;14.90;98.20
15231;DHT22;32569;51.762;8.564;2023-05-25T12:47:09;14.90;98.10
15231;DHT22;32569;51.762;8.564;2023-05-25T12:49:37;15.00;98.30
15231;DHT22;32569;51.762;8.564;2023-05-25T12:52:06;15.20;98.30
15231;DHT22;32569;51.762;8.564;2023-05-25T12:54:35;15.20;97.90
15231;DHT22;32569;51.762;8.564;2023-05-25T12:57:03;15.40;98.30
15231;DHT22;32569;51.762;8.564;2023-05-25T12:59:31;15.50;97.70
15231;DHT22;32569;51.762;8.564;2023-05-25T13:01:58;15.60;97.70
15231;DHT22;32569;51.762;8.564;2023-05-25T13:04:25;15.60;97.90
15231;DHT22;32569;51.762;8.564;2023-05-25T13:06:54;15.60;98.10
15231;DHT22;32569;51.762;8.564;2023-05-25T13:09:25;15.60;97.90
15231;DHT22;32569;51.762;8.564;2023-05-25T13:12:04;15.60;98.20
15231;DHT22;32569;51.762;8.564;2023-05-25T13:14:37;15.50;98.50
15231;DHT22;32569;51.762;8.564;2023-05-25T13:17:04;15.50;98.10
15231;DHT22;32569;51.762;8.564;2023-05-25T13:19:31;15.40;97.80
15231;DHT22;32569;51.762;8.564;2023-05-25T13:22:00;15.40;98.70
15231;DHT22;32569;51.762;8.564;2023-05-25T13:24:28;15.50;98.10
15231;DHT22;32569;51.762;8.564;2023-05-25T13:26:55;15.60;98.40
15231;DHT22;32569;51.762;8.564;2023-05-25T13:29:21;15.60;98.20
15231;DHT22;32569;51.762;8.564;2023-05-25T13:31:49;15.70;98.30
15231;DHT22;32569;51.762;8.564;2023-05-25T13:34:18;15.60;98.00
15231;DHT22;32569;51.762;8.564;2023-05-25T13:36:45;15.50;98.00
15231;DHT22;32569;51.762;8.564;2023-05-25T13:39:12;15.60;97.50
15231;DHT22;32569;51.762;8.564;2023-05-25T13:41:43;15.60;97.70
15231;DHT22;32569;51.762;8.564;2023-05-25T13:44:13;15.70;97.80
15231;DHT22;32569;51.762;8.564;2023-05-25T13:46:40;15.80;97.40
15231;DHT22;32569;51.762;8.564;2023-05-25T13:49:06;15.60;98.00
15231;DHT22;32569;51.762;8.564;2023-05-25T13:51:33;15.50;97.40
15231;DHT22;32569;51.762;8.564;2023-05-25T13:54:02;15.60;97.80
15231;DHT22;32569;51.762;8.564;2023-05-25T13:56:29;15.60;97.40
15231;DHT22;32569;51.762;8.564;2023-05-25T13:58:58;15.70;96.90
15231;DHT22;32569;51.762;8.564;2023-05-25T14:01:35;15.60;96.90
15231;DHT22;32569;51.762;8.564;2023-05-25T14:04:01;15.80;97.00
15231;DHT22;32569;51.762;8.564;2023-05-25T14:06:29;15.90;97.10
15231;DHT22;32569;51.762;8.564;2023-05-25T14:08:56;15.90;96.40
15231;DHT22;32569;51.762;8.564;2023-05-25T14:11:22;15.80;96.80
15231;DHT22;32569;51.762;8.564;2023-05-25T14:13:49;15.80;97.00
15231;DHT22;32569;51.762;8.564;2023-05-25T14:16:17;15.80;96.50
15231;DHT22;32569;51.762;8.564;2023-05-25T14:18:44;15.70;96.00
15231;DHT22;32569;51.762;8.564;2023-05-25T14:21:10;15.70;96.10
15231;DHT22;32569;51.762;8.564;2023-05-25T14:23:43;15.90;96.10
15231;DHT22;32569;51.762;8.564;2023-05-25T14:26:13;16.00;95.70
15231;DHT22;32569;51.762;8.564;2023-05-25T14:28:40;16.10;96.10
15231;DHT22;32569;51.762;8.564;2023-05-25T14:31:06;16.00;95.40
15231;DHT22;32569;51.762;8.564;2023-05-25T14:33:34;16.10;95.80
15231;DHT22;32569;51.762;8.564;2023-05-25T14:36:01;16.10;96.00
15231;DHT22;32569;51.762;8.564;2023-05-25T14:38:27;16.10;96.00
15231;DHT22;32569;51.762;8.564;2023-05-25T14:40:55;16.20;95.70
15231;DHT22;32569;51.762;8.564;2023-05-25T14:43:21;16.00;95.20
15231;DHT22;32569;51.762;8.564;2023-05-25T14:45:48;15.90;95.60
15231;DHT22;32569;51.762;8.564;2023-05-25T14:48:17;15.80;95.90
15231;DHT22;32569;51.762;8.564;2023-05-25T14:50:51;15.80;95.50
15231;DHT22;32569;51.762;8.564;2023-05-25T14:53:20;15.80;96.30
15231;DHT22;32569;51.762;8.564;2023-05-25T14:55:53;16.10;95.80
15231;DHT22;32569;51.762;8.564;2023-05-25T14:58:22;16.10;95.00
15231;DHT22;32569;51.762;8.564;2023-05-25T15:00:52;16.10;95.60
15231;DHT22;32569;51.762;8.564;2023-05-25T15:03:18;16.20;95.70
15231;DHT22;32569;51.762;8.564;2023-05-25T15:05:45;16.40;95.20
15231;DHT22;32569;51.762;8.564;2023-05-25T15:08:13;16.40;95.40
15231;DHT22;32569;51.762;8.564;2023-05-25T15:10:39;16.50;95.10
15231;DHT22;32569;51.762;8.564;2023-05-25T15:13:06;16.50;95.90
15231;DHT22;32569;51.762;8.564;2023-05-25T15:15:33;16.50;95.00
15231;DHT22;32569;51.762;8.564;2023-05-25T15:17:59;16.60;95.10
15231;DHT22;32569;51.762;8.564;2023-05-25T15:20:26;16.60;95.10
15231;DHT22;32569;51.762;8.564;2023-05-25T15:22:52;16.70;95.70
15231;DHT22;32569;51.762;8.564;2023-05-25T15:25:20;16.80;96.10
15231;DHT22;32569;51.762;8.564;2023-05-25T15:27:47;16.90;94.90
15231;DHT22;32569;51.762;8.564;2023-05-25T15:30:14;16.90;95.20
15231;DHT22;32569;51.762;8.564;2023-05-25T15:32:40;16.80;95.30
15231;DHT22;32569;51.762;8.564;2023-05-25T15:35:08;16.90;95.30
15231;DHT22;32569;51.762;8.564;2023-05-25T15:37:34;16.70;95.10
15231;DHT22;32569;51.762;8.564;2023-05-25T15:40:01;16.70;95.80
15231;DHT22;32569;51.762;8.564;2023-05-25T15:42:29;16.70;95.50
15231;DHT22;32569;51.762;8.564;2023-05-25T15:44:55;16.70;95.90
15231;DHT22;32569;51.762;8.564;2023-05-25T15:47:22;16.70;95.30
15231;DHT22;32569;51.762;8.564;2023-05-25T15:49:49;16.60;95.90
15231;DHT22;32569;51.762;8.564;2023-05-25T15:52:15;16.60;95.90
15231;DHT22;32569;51.762;8.564;2023-05-25T15:54:42;16.60;96.30
15231;DHT22;32569;51.762;8.564;2023-05-25T15:57:08;16.60;95.80
15231;DHT22;32569;51.762;8.564;2023-05-25T15:59:36;16.60;95.50
15231;DHT22;32569;51.762;8.564;2023-05-25T16:02:03;16.50;95.40
15231;DHT22;32569;51.762;8.564;2023-05-25T16:04:30;16.50;95.50
15231;DHT22;32569;51.762;8.564;2023-05-25T16:06:56;16.50;96.30
15231;DHT22;32569;51.762;8.564;2023-05-25T16:09:23;16.60;95.50
15231;DHT22;32569;51.762;8.564;2023-05-25T16:11:50;16.60;95.80
15231;DHT22;32569;51.762;8.564;2023-05-25T16:14:16;16.50;95.50
15231;DHT22;32569;51.762;8.564;2023-05-25T16:16:44;16.50;95.60
15231;DHT22;32569;51.762;8.564;2023-05-25T16:19:11;16.50;95.70
15231;DHT22;32569;51.762;8.564;2023-05-25T16:21:38;16.60;95.50
15231;DHT22;32569;51.762;8.564;2023-05-25T16:24:05;16.60;95.50
15231;DHT22;32569;51.762;8.564;2023-05-25T16:26:31;16.80;95.90
15231;DHT22;32569;51.762;8.564;2023-05-25T16:28:58;17.20;95.80
15231;DHT22;32569;51.762;8.564;2023-05-25T16:31:25;17.40;94.10
15231;DHT22;32569;51.762;8.564;2023-05-25T16:33:56;17.40;94.00
15231;DHT22;32569;51.762;8.564;2023-05-25T16:36:23;18.00;94.20
15231;DHT22;32569;51.762;8.564;2023-05-25T16:38:49;19.40;93.00
15231;DHT22;32569;51.762;8.564;2023-05-25T16:41:17;20.00;91.90
15231;DHT22;32569;51.762;8.564;2023-05-25T16:43:43;20.10;91.70
15231;DHT22;32569;51.762;8.564;2023-05-25T16:46:10;20.10;91.30
15231;DHT22;32569;51.762;8.564;2023-05-25T16:48:37;21.00;90.50
15231;DHT22;32569;51.762;8.564;2023-05-25T16:51:05;21.90;87.70
15231;DHT22;32569;51.762;8.564;2023-05-25T16:53:31;22.80;86.60
15231;DHT22;32569;51.762;8.564;2023-05-25T16:55:58;23.50;86.20
15231;DHT22;32569;51.762;8.564;2023-05-25T16:58:25;22.90;86.20
15231;DHT22;32569;51.762;8.564;2023-05-25T17:00:51;22.80;87.20
15231;DHT22;32569;51.762;8.564;2023-05-25T17:03:21;22.60;87.00
15231;DHT22;32569;51.762;8.564;2023-05-25T17:05:47;21.20;89.00
15231;DHT22;32569;51.762;8.564;2023-05-25T17:08:15;20.40;90.50
15231;DHT22;32569;51.762;8.564;2023-05-25T17:10:46;19.40;90.90
15231;DHT22;32569;51.762;8.564;2023-05-25T17:13:13;18.00;93.00
15231;DHT22;32569;51.762;8.564;2023-05-25T17:15:43;17.40;93.80
15231;DHT22;32569;51.762;8.564;2023-05-25T17:18:09;18.00;93.50
15231;DHT22;32569;51.762;8.564;2023-05-25T17:20:36;19.50;92.20
15231;DHT22;32569;51.762;8.564;2023-05-25T17:23:02;20.60;91.20
15231;DHT22;32569;51.762;8.564;2023-05-25T17:25:30;21.60;90.60
15231;DHT22;32569;51.762;8.564;2023-05-25T17:27:57;22.90;87.60
15231;DHT22;32569;51.762;8.564;2023-05-25T17:30:23;23.70;86.90
15231;DHT22;32569;51.762;8.564;2023-05-25T17:32:50;23.50;85.60
15231;DHT22;32569;51.762;8.564;2023-05-25T17:35:18;24.00;85.10
15231;DHT22;32569;51.762;8.564;2023-05-25T17:37:44;24.50;84.00
15231;DHT22;32569;51.762;8.564;2023-05-25T17:40:12;24.40;83.80
15231;DHT22;32569;51.762;8.564;2023-05-25T17:42:40;22.60;84.50
15231;DHT22;32569;51.762;8.564;2023-05-25T17:45:08;22.30;86.40
15231;DHT22;32569;51.762;8.564;2023-05-25T17:47:35;20.80;87.60
15231;DHT22;32569;51.762;8.564;2023-05-25T17:50:03;20.20;90.20
15231;DHT22;32569;51.762;8.564;2023-05-25T17:52:32;19.10;90.60
15231;DHT22;32569;51.762;8.564;2023-05-25T17:54:59;18.30;91.30
15231;DHT22;32569;51.762;8.564;2023-05-25T17:57:25;17.80;92.10
15231;DHT22;32569;51.762;8.564;2023-05-25T17:59:53;17.70;92.10
15231;DHT22;32569;51.762;8.564;2023-05-25T18:02:20;17.90;92.10
15231;DHT22;32569;51.762;8.564;2023-05-25T18:04:46;17.50;92.40
15231;DHT22;32569;51.762;8.564;2023-05-25T18:07:13;17.20;93.10
15231;DHT22;32569;51.762;8.564;2023-05-25T18:09:40;17.00;93.20
15231;DHT22;32569;51.762;8.564;2023-05-25T18:12:07;17.00;93.30
15231;DHT22;32569;51.762;8.564;2023-05-25T18:14:33;16.90;93.30
15231;DHT22;32569;51.762;8.564;2023-05-25T18:17:03;16.80;93.70
15231;DHT22;32569;51.762;8.564;2023-05-25T18:19:30;16.50;93.90
15231;DHT22;32569;51.762;8.564;2023-05-25T18:21:56;16.50;94.00
15231;DHT22;32569;51.762;8.564;2023-05-25T18:24:23;16.40;93.80
15231;DHT22;32569;51.762;8.564;2023-05-25T18:26:50;16.30;93.90
15231;DHT22;32569;51.762;8.564;2023-05-25T18:29:16;16.20;94.20
15231;DHT22;32569;51.762;8.564;2023-05-25T18:31:43;16.10;94.60
15231;DHT22;32569;51.762;8.564;2023-05-25T18:34:16;16.10;94.50
15231;DHT22;32569;51.762;8.564;2023-05-25T18:36:42;16.00;94.70
15231;DHT22;32569;51.762;8.564;2023-05-25T18:39:09;16.00;94.50
15231;DHT22;32569;51.762;8.564;2023-05-25T18:41:36;16.00;94.40
15231;DHT22;32569;51.762;8.564;2023-05-25T18:44:03;16.00;94.70
15231;DHT22;32569;51.762;8.564;2023-05-25T18:46:30;16.00;94.30
15231;DHT22;32569;51.762;8.564;2023-05-25T18:48:57;16.00;94.60
15231;DHT22;32569;51.762;8.564;2023-05-25T18:51:25;15.90;95.10
15231;DHT22;32569;51.762;8.564;2023-05-25T18:53:51;15.80;95.00
15231;DHT22;32569;51.762;8.564;2023-05-25T18:56:19;15.80;95.30
15231;DHT22;32569;51.762;8.564;2023-05-25T18:58:45;15.80;95.00
15231;DHT22;32569;51.762;8.564;2023-05-25T19:01:12;15.70;95.40
15231;DHT22;32569;51.762;8.564;2023-05-25T19:03:39;15.60;95.80
15231;DHT22;32569;51.762;8.564;2023-05-25T19:06:05;15.60;95.90
15231;DHT22;32569;51.762;8.564;2023-05-25T19:08:33;15.70;96.00
15231;DHT22;32569;51.762;8.564;2023-05-25T19:11:00;15.70;95.80
15231;DHT22;32569;51.762;8.564;2023-05-25T19:13:26;15.70;96.00
15231;DHT22;32569;51.762;8.564;2023-05-25T19:15:53;15.70;95.80